Time;durP1;ratioP1;P1;durP2;ratioP2;P2;SDS_P1;SDS_P2;PMS_P1;PMS_P2;Temp;Humidity;BMP_temperature;BMP_pressure;BME280_temperature;BME280_humidity;BME280_pressure;Samples;Min_cycle;Max_cycle;Signal;HPM_P1;HPM_P2
2021/11/28 03:45:39;;;;;;;60.95;32.42;;;4.10;99.90;;;;;;5667542;24;20045;-81
2021/11/28 03:48:08;;;;;;;58.72;31.88;;;4.10;99.90;;;;;;4786063;29;20031;-81
2021/11/28 03:50:40;;;;;;;54.05;30.33;;;4.10;99.90;;;;;;4797822;29;20053;-81
2021/11/28 03:53:07;;;;;;;59.45;32.05;;;4.20;99.90;;;;;;4785412;29;20031;-81
2021/11/28 03:55:33;;;;;;;57.65;32.58;;;4.20;99.90;;;;;;4800344;29;20041;-81
2021/11/28 03:57:59;;;;;;;60.55;32.08;;;4.10;99.90;;;;;;4800125;29;20553;-81
2021/11/28 04:00:25;;;;;;;63.08;34.35;;;4.10;99.90;;;;;;4798978;29;20026;-81
2021/11/28 04:02:59;;;;;;;58.92;32.17;;;4.00;99.90;;;;;;4791938;29;20031;-81
2021/11/28 04:05:28;;;;;;;58.30;32.38;;;4.00;99.90;;;;;;4797340;29;20035;-81
2021/11/28 04:07:54;;;;;;;61.00;32.35;;;4.00;99.90;;;;;;4782008;29;20291;-81
2021/11/28 04:10:21;;;;;;;57.73;31.80;;;4.10;99.90;;;;;;4815314;29;20114;-81
2021/11/28 04:12:48;;;;;;;54.75;29.13;;;4.20;99.90;;;;;;4785140;29;20272;-81
2021/11/28 04:15:15;;;;;;;61.17;31.50;;;4.20;99.90;;;;;;4800014;29;20043;-81
2021/11/28 04:17:50;;;;;;;55.95;30.90;;;4.10;99.90;;;;;;4787214;29;20039;-81
2021/11/28 04:20:21;;;;;;;58.08;29.65;;;4.10;99.90;;;;;;4786251;29;20035;-81
2021/11/28 04:22:47;;;;;;;69.47;34.08;;;4.20;99.90;;;;;;4784855;29;20038;-81
2021/11/28 04:25:14;;;;;;;81.77;35.33;;;4.20;99.90;;;;;;4784988;29;20035;-81
2021/11/28 04:27:40;;;;;;;;;;;4.10;99.90;;;;;;4815102;29;20029;-81
2021/11/28 04:30:08;;;;;;;83.13;36.10;;;4.00;99.90;;;;;;4785009;29;19987;-81
2021/11/28 04:32:35;;;;;;;85.05;36.45;;;4.00;99.90;;;;;;4799912;29;20246;-81
2021/11/28 04:35:01;;;;;;;99.20;39.00;;;4.00;99.90;;;;;;4784764;29;20035;-81
2021/11/28 04:37:27;;;;;;;109.38;41.85;;;4.00;99.90;;;;;;4799463;29;20110;-81
2021/11/28 04:39:53;;;;;;;92.28;37.17;;;4.10;99.90;;;;;;4792295;29;20038;-81
2021/11/28 04:42:20;;;;;;;86.40;37.22;;;4.10;99.90;;;;;;4784668;29;20323;-81
2021/11/28 04:44:49;;;;;;;103.00;39.53;;;4.10;99.90;;;;;;4785259;29;20047;-81
2021/11/28 04:47:18;;;;;;;108.72;40.50;;;4.20;99.90;;;;;;4781609;29;20043;-81
2021/11/28 04:49:52;;;;;;;147.00;41.45;;;4.20;99.90;;;;;;4796340;29;20269;-81
2021/11/28 04:52:17;;;;;;;119.53;40.25;;;4.20;99.90;;;;;;4811438;29;20035;-81
2021/11/28 04:54:44;;;;;;;149.85;45.85;;;4.20;99.90;;;;;;4811682;29;20159;-81
2021/11/28 04:57:10;;;;;;;105.25;40.63;;;4.20;99.90;;;;;;4781489;30;20315;-81
2021/11/28 04:59:35;;;;;;;109.97;39.28;;;4.20;99.90;;;;;;4796340;29;20328;-81
2021/11/28 05:02:01;;;;;;;162.38;45.30;;;4.20;99.90;;;;;;4796217;29;20063;-81
2021/11/28 05:04:28;;;;;;;173.15;45.67;;;4.20;99.90;;;;;;4811021;29;20035;-81
2021/11/28 05:07:17;;;;;;;138.20;44.38;;;4.00;99.90;;;;;;4783879;30;20047;-81
2021/11/28 05:09:53;;;;;;;148.98;43.70;;;4.00;99.90;;;;;;4766952;30;20051;-81
2021/11/28 05:12:21;;;;;;;168.80;47.63;;;4.00;99.90;;;;;;4780688;30;20067;-81
2021/11/28 05:14:47;;;;;;;150.60;45.78;;;4.00;99.90;;;;;;4765840;30;20036;-81
2021/11/28 05:17:13;;;;;;;123.07;40.03;;;4.10;99.90;;;;;;4780484;30;20039;-81
2021/11/28 05:19:49;;;;;;;139.57;42.15;;;4.10;99.90;;;;;;4780630;30;20043;-81
2021/11/28 05:22:21;;;;;;;148.75;45.97;;;4.20;99.90;;;;;;4781316;30;20123;-81
2021/11/28 05:24:50;;;;;;;136.60;42.67;;;4.20;99.90;;;;;;4795156;29;20335;-81
2021/11/28 05:27:17;;;;;;;137.00;43.05;;;4.20;99.90;;;;;;4780667;30;20228;-80
2021/11/28 05:29:43;;;;;;;149.63;45.05;;;4.20;99.90;;;;;;4795336;30;20035;-81
2021/11/28 05:32:09;;;;;;;131.23;43.77;;;4.30;99.90;;;;;;4780362;30;20291;-81
2021/11/28 05:34:47;;;;;;;156.25;46.50;;;4.30;99.90;;;;;;4801702;29;20103;-80
2021/11/28 05:37:16;;;;;;;140.57;45.03;;;4.30;99.90;;;;;;4792225;30;20054;-81
2021/11/28 05:39:44;;;;;;;135.85;43.63;;;4.30;99.90;;;;;;4783959;29;20037;-80
2021/11/28 05:42:12;;;;;;;216.80;49.92;;;4.40;99.90;;;;;;4792433;29;20059;-80
2021/11/28 05:44:39;;;;;;;176.35;47.38;;;4.40;99.90;;;;;;4781050;30;20055;-80
2021/11/28 05:47:34;;;;;;;160.40;47.25;;;4.40;99.90;;;;;;4788663;29;20060;-81
2021/11/28 05:50:25;;;;;;;145.13;45.03;;;4.50;99.90;;;;;;4776520;30;20428;-81
2021/11/28 05:52:52;;;;;;;147.45;43.72;;;4.40;99.90;;;;;;4792362;29;20043;-80
2021/11/28 05:55:20;;;;;;;147.93;43.75;;;4.50;99.90;;;;;;4789433;29;20054;-80
2021/11/28 05:57:52;;;;;;;138.32;42.80;;;4.50;99.90;;;;;;4771945;30;20055;-80
2021/11/28 06:00:20;;;;;;;131.38;44.25;;;4.60;99.90;;;;;;4786728;30;20031;-80
2021/11/28 06:02:53;;;;;;;116.03;41.05;;;4.60;99.90;;;;;;4780762;30;20082;-80
2021/11/28 06:05:42;;;;;;;122.53;42.27;;;4.60;99.90;;;;;;4792876;30;20032;-80
2021/11/28 06:08:27;;;;;;;106.28;38.35;;;4.60;99.90;;;;;;4776238;30;20393;-80
2021/11/28 06:10:57;;;;;;;109.25;38.72;;;4.60;99.90;;;;;;4766019;30;20280;-80
2021/11/28 06:13:23;;;;;;;111.53;38.55;;;4.60;99.90;;;;;;4771562;30;20036;-80
2021/11/28 06:16:12;;;;;;;119.28;40.08;;;4.60;99.90;;;;;;4750767;30;20168;-81
2021/11/28 06:18:56;;;;;;;111.03;37.65;;;4.60;99.90;;;;;;4751328;30;20094;-81
2021/11/28 06:21:28;;;;;;;118.70;39.60;;;4.60;99.90;;;;;;4767738;30;20086;-81
2021/11/28 06:24:07;;;;;;;120.22;39.80;;;4.50;99.90;;;;;;4734902;30;20063;-81
2021/11/28 06:26:33;;;;;;;110.88;39.15;;;4.50;99.90;;;;;;4727430;30;20041;-82
2021/11/28 06:28:59;;;;;;;104.07;39.38;;;4.50;99.90;;;;;;4727037;30;20112;-82
2021/11/28 06:31:25;;;;;;;106.43;37.88;;;4.50;99.90;;;;;;4727403;30;20024;-83
2021/11/28 06:34:09;;;;;;;97.60;36.85;;;4.50;99.90;;;;;;4715119;30;20117;-83
2021/11/28 06:37:04;;;;;;;97.30;35.85;;;4.50;99.90;;;;;;4703488;30;20369;-84
2021/11/28 06:40:06;;;;;;;105.72;38.80;;;4.40;99.90;;;;;;4692250;30;20042;-84
2021/11/28 06:42:58;;;;;;;104.53;37.72;;;4.40;99.90;;;;;;4686680;30;20042;-85
2021/11/28 06:45:25;;;;;;;97.53;36.38;;;4.30;99.90;;;;;;4688997;30;20049;-85
2021/11/28 06:47:53;;;;;;;98.60;36.75;;;4.30;99.90;;;;;;4674036;30;20054;-85
2021/11/28 06:50:20;;;;;;;85.50;33.80;;;4.30;99.90;;;;;;4688854;30;20036;-85
2021/11/28 06:53:05;;;;;;;102.18;35.50;;;4.40;99.90;;;;;;4687511;30;20099;-86
2021/11/28 06:55:32;;;;;;;90.73;35.87;;;4.30;99.90;;;;;;4661241;30;20030;-86
2021/11/28 06:58:32;;;;;;;94.65;36.08;;;4.30;99.90;;;;;;4673872;30;20034;-86
2021/11/28 07:01:00;;;;;;;82.97;33.05;;;4.20;99.90;;;;;;4702563;30;20109;-86
2021/11/28 07:03:27;;;;;;;74.47;32.60;;;4.20;99.90;;;;;;4688223;30;20038;-86
2021/11/28 07:06:19;;;;;;;77.00;31.63;;;4.30;99.90;;;;;;4655445;30;20039;-86
2021/11/28 07:08:53;;;;;;;67.25;28.20;;;4.30;99.90;;;;;;4631481;30;20047;-86
2021/11/28 07:11:19;;;;;;;80.75;32.05;;;4.30;99.90;;;;;;4657648;30;20041;-86
2021/11/28 07:13:46;;;;;;;80.50;33.47;;;4.40;99.90;;;;;;4645900;30;20045;-85
2021/11/28 07:16:12;;;;;;;;;;;4.40;99.90;;;;;;4690583;30;20042;-85
2021/11/28 07:18:44;;;;;;;69.18;30.20;;;4.40;99.90;;;;;;4678127;30;19918;-85
2021/11/28 07:21:12;;;;;;;71.63;30.30;;;4.40;99.90;;;;;;4711445;30;20051;-86
2021/11/28 07:23:48;;;;;;;75.82;30.95;;;4.50;99.90;;;;;;4740246;30;20049;-85
2021/11/28 07:26:16;;;;;;;72.30;30.80;;;4.50;99.90;;;;;;4741370;30;20073;-85
2021/11/28 07:28:46;;;;;;;66.53;29.80;;;4.50;99.90;;;;;;4741267;30;20041;-85
2021/11/28 07:31:15;;;;;;;85.88;34.88;;;4.60;99.90;;;;;;4740930;30;20044;-85
2021/11/28 07:33:59;;;;;;;98.70;38.03;;;4.50;99.90;;;;;;4726498;30;20075;-85
2021/11/28 07:36:48;;;;;;;77.88;33.03;;;4.40;99.90;;;;;;4741470;30;20321;-85
2021/11/28 07:39:14;;;;;;;74.10;33.03;;;4.20;99.90;;;;;;4728572;30;20288;-84
2021/11/28 07:41:40;;;;;;;76.35;35.95;;;4.30;99.90;;;;;;4727245;30;20045;-84
2021/11/28 07:44:35;;;;;;;84.35;32.92;;;4.40;99.90;;;;;;4770886;30;20043;-84
2021/11/28 07:47:20;;;;;;;73.10;31.17;;;4.40;99.90;;;;;;4766459;30;20443;-84
2021/11/28 07:50:10;;;;;;;74.57;31.85;;;4.40;99.90;;;;;;4768965;30;20048;-83
2021/11/28 07:52:38;;;;;;;85.18;33.30;;;4.40;99.90;;;;;;4766160;30;20098;-84
2021/11/28 07:55:07;;;;;;;79.25;33.97;;;4.40;99.90;;;;;;4754430;30;20036;-83
2021/11/28 07:57:53;;;;;;;71.30;31.05;;;4.40;99.90;;;;;;4760463;30;20456;-83
2021/11/28 08:00:42;;;;;;;71.72;30.40;;;4.50;99.90;;;;;;4733012;30;20037;-83
2021/11/28 08:03:18;;;;;;;61.80;29.00;;;4.40;99.90;;;;;;4725076;30;20045;-83
2021/11/28 08:06:02;;;;;;;63.45;28.65;;;4.40;99.90;;;;;;4726945;30;20257;-84
2021/11/28 08:08:48;;;;;;;61.25;27.85;;;4.50;99.90;;;;;;4720896;30;20045;-84
2021/11/28 08:11:32;;;;;;;51.67;24.40;;;4.50;99.90;;;;;;4724214;30;20087;-84
2021/11/28 08:13:57;;;;;;;53.53;25.13;;;4.40;99.90;;;;;;4739363;30;20054;-84
2021/11/28 08:16:23;;;;;;;47.30;23.60;;;4.50;99.90;;;;;;4741294;30;20059;-84
2021/11/28 08:18:49;;;;;;;49.03;20.65;;;4.40;99.90;;;;;;4755680;30;20354;-84
2021/11/28 08:21:15;;;;;;;40.58;20.58;;;4.40;99.90;;;;;;4727653;30;20098;-84
2021/11/28 08:23:42;;;;;;;37.35;20.73;;;4.30;99.90;;;;;;4729486;30;20040;-83
2021/11/28 08:26:09;;;;;;;38.85;18.83;;;4.30;99.90;;;;;;4733399;30;20104;-84
2021/11/28 08:28:35;;;;;;;38.92;19.02;;;4.30;99.90;;;;;;4730340;30;20069;-85
2021/11/28 08:31:03;;;;;;;38.72;19.23;;;4.40;99.90;;;;;;4754415;30;20483;-86
2021/11/28 08:33:47;;;;;;;34.65;18.73;;;4.30;99.90;;;;;;4744086;30;20375;-86
2021/11/28 08:36:19;;;;;;;35.10;17.45;;;4.30;99.90;;;;;;4724789;30;20040;-85
2021/11/28 08:39:08;;;;;;;35.42;17.75;;;4.20;99.90;;;;;;4773035;30;20058;-85
2021/11/28 08:41:37;;;;;;;34.88;18.58;;;4.20;99.90;;;;;;4805517;29;20054;-86
2021/11/28 08:44:09;;;;;;;31.50;17.77;;;4.20;99.90;;;;;;4800298;29;20335;-86
2021/11/28 08:46:35;;;;;;;31.42;17.83;;;4.20;99.90;;;;;;4780440;29;20051;-86
2021/11/28 08:49:02;;;;;;;29.52;16.65;;;4.10;99.90;;;;;;4789395;29;20036;-86
2021/11/28 08:51:39;;;;;;;30.13;17.25;;;4.10;99.90;;;;;;4790660;29;20035;-86
2021/11/28 08:54:15;;;;;;;29.13;15.82;;;4.10;99.90;;;;;;4794612;29;20283;-86
2021/11/28 08:56:50;;;;;;;28.73;17.40;;;4.10;99.90;;;;;;4794777;29;20118;-86
2021/11/28 08:59:26;;;;;;;27.48;16.00;;;4.10;99.90;;;;;;4811795;29;20046;-86
2021/11/28 09:01:59;;;;;;;21.40;13.18;;;4.10;99.90;;;;;;4756634;29;20050;-85
2021/11/28 09:04:25;;;;;;;23.58;12.65;;;4.10;99.90;;;;;;4766905;29;20118;-86
2021/11/28 09:06:51;;;;;;;19.40;11.90;;;4.10;99.90;;;;;;4782112;29;20047;-86
2021/11/28 09:09:17;;;;;;;23.88;15.60;;;4.10;99.90;;;;;;4781036;29;20171;-86
2021/11/28 09:11:43;;;;;;;18.83;11.02;;;4.10;99.90;;;;;;4797367;29;20072;-86
2021/11/28 09:14:09;;;;;;;19.00;11.50;;;4.20;99.90;;;;;;4796230;29;20043;-86
2021/11/28 09:16:35;;;;;;;16.60;10.17;;;4.30;99.90;;;;;;4779769;29;20046;-86
2021/11/28 09:19:20;;;;;;;18.65;10.80;;;4.30;99.90;;;;;;4726003;30;20294;-86
2021/11/28 09:21:47;;;;;;;17.33;10.00;;;4.30;99.90;;;;;;4763749;30;20042;-86
2021/11/28 09:26:58;;;;;;;17.25;10.70;;;4.30;99.90;;;;;;4792840;30;20031;-85
2021/11/28 09:29:24;;;;;;;16.38;10.55;;;4.20;99.90;;;;;;4780209;30;20092;-85
2021/11/28 09:31:49;;;;;;;16.23;9.70;;;4.20;99.90;;;;;;4798571;30;20043;-86
2021/11/28 09:34:27;;;;;;;17.33;10.07;;;4.20;99.90;;;;;;4813458;29;20234;-86
2021/11/28 09:37:05;;;;;;;17.05;9.55;;;4.30;99.90;;;;;;4778606;30;20067;-86
2021/11/28 09:39:31;;;;;;;16.00;9.25;;;4.30;99.90;;;;;;4765257;30;20090;-86
2021/11/28 09:42:06;;;;;;;14.13;8.77;;;4.40;99.90;;;;;;4768462;30;20039;-86
2021/11/28 09:44:35;;;;;;;10.00;7.10;;;4.40;99.90;;;;;;4794209;30;20059;-86
2021/11/28 09:47:02;;;;;;;11.23;6.15;;;4.60;99.90;;;;;;4765657;30;20044;-86
2021/11/28 09:49:30;;;;;;;10.48;6.80;;;4.60;99.90;;;;;;4780224;30;20068;-85
2021/11/28 09:52:03;;;;;;;11.30;6.72;;;4.70;99.90;;;;;;4781425;30;20344;-86
2021/11/28 09:54:29;;;;;;;9.75;6.20;;;4.80;99.90;;;;;;4767542;30;20039;-85
2021/11/28 09:56:55;;;;;;;8.60;6.20;;;4.80;99.90;;;;;;4758834;30;20048;-86
2021/11/28 09:59:22;;;;;;;10.35;6.75;;;4.90;99.90;;;;;;4753080;30;20047;-86
2021/11/28 10:01:49;;;;;;;10.52;5.90;;;4.80;99.90;;;;;;4748633;30;20047;-86
2021/11/28 10:04:15;;;;;;;7.85;5.38;;;4.90;99.90;;;;;;4763767;30;20044;-86
2021/11/28 10:06:41;;;;;;;10.70;6.22;;;4.80;99.90;;;;;;4764350;30;20040;-86
2021/11/28 10:09:10;;;;;;;7.45;4.90;;;5.00;99.90;;;;;;4800941;29;20154;-87
2021/11/28 10:12:40;;;;;;;;;;;;;;;;;;;;;
2021/11/28 10:15:16;;;;;;;6.57;4.20;;;5.10;99.90;;;;;;4782065;30;20043;-86
2021/11/28 10:18:20;;;;;;;;;;;;;;;;;;;;;
2021/11/28 10:21:08;;;;;;;7.47;4.55;;;5.00;99.90;;;;;;4745233;30;20075;-87
2021/11/28 10:23:34;;;;;;;9.35;4.78;;;5.00;99.90;;;;;;4723102;30;20040;-87
2021/11/28 10:26:33;;;;;;;6.10;4.13;;;5.10;99.90;;;;;;4723627;30;20045;-87
2021/11/28 10:29:41;;;;;;;;;;;;;;;;;;;;;
2021/11/28 10:32:14;;;;;;;6.60;4.97;;;5.00;99.90;;;;;;4708964;30;20071;-86
2021/11/28 10:35:50;;;;;;;8.02;5.43;;;4.90;99.90;;;;;;4693877;30;20295;-87
2021/11/28 10:38:44;;;;;;;10.43;6.18;;;4.90;99.90;;;;;;4670227;30;20057;-87
2021/11/28 10:41:49;;;;;;;8.88;5.68;;;5.00;99.90;;;;;;4676204;30;20292;-87
2021/11/28 10:44:16;;;;;;;6.53;5.15;;;5.00;99.90;;;;;;4664993;30;20050;-87
2021/11/28 10:46:49;;;;;;;7.13;5.13;;;4.80;99.90;;;;;;4662355;30;20066;-88
2021/11/28 10:49:19;;;;;;;12.68;5.47;;;4.80;99.90;;;;;;4681583;30;20038;-86
2021/11/28 10:51:51;;;;;;;7.07;5.38;;;4.80;99.90;;;;;;4641458;30;20043;-87
2021/11/28 10:54:26;;;;;;;8.10;6.00;;;4.90;99.90;;;;;;4632247;30;20051;-87
2021/11/28 10:57:07;;;;;;;8.32;5.43;;;5.00;99.90;;;;;;4630559;30;20350;-87
2021/11/28 10:59:39;;;;;;;7.55;5.60;;;5.10;99.90;;;;;;4613900;31;20067;-86
2021/11/28 11:02:27;;;;;;;6.40;5.20;;;5.30;99.90;;;;;;4613579;31;20300;-86
2021/11/28 11:04:56;;;;;;;7.97;5.55;;;5.50;99.90;;;;;;4657509;30;20480;-86
2021/11/28 11:07:39;;;;;;;7.88;5.85;;;5.60;99.90;;;;;;4649093;30;20043;-86
2021/11/28 11:10:20;;;;;;;9.25;5.85;;;5.70;99.90;;;;;;4646532;30;20117;-86
2021/11/28 11:12:47;;;;;;;8.77;6.43;;;5.80;99.90;;;;;;4655589;30;20054;-86
2021/11/28 11:15:29;;;;;;;9.90;6.73;;;5.60;99.40;;;;;;4680740;30;20063;-86
2021/11/28 11:17:57;;;;;;;9.68;6.80;;;5.60;99.80;;;;;;4710481;30;20378;-85
2021/11/28 11:20:27;;;;;;;11.52;8.23;;;5.50;99.90;;;;;;4697284;30;20385;-85
2021/11/28 11:22:54;;;;;;;11.00;8.40;;;5.40;99.60;;;;;;4681223;30;20136;-86
2021/11/28 11:25:21;;;;;;;;;;;5.30;99.90;;;;;;4701338;30;20053;-85
2021/11/28 11:27:50;;;;;;;11.35;7.97;;;5.30;99.90;;;;;;4688713;30;19981;-85
2021/11/28 11:30:25;;;;;;;13.77;9.30;;;5.30;99.90;;;;;;4686580;30;20045;-85
2021/11/28 11:32:51;;;;;;;13.52;9.70;;;5.20;99.90;;;;;;4719849;30;20095;-85
2021/11/28 11:35:21;;;;;;;13.18;10.00;;;5.10;99.90;;;;;;4764702;30;20063;-85
2021/11/28 11:38:17;;;;;;;15.77;11.02;;;5.10;99.90;;;;;;4725247;30;20052;-85
2021/11/28 11:40:43;;;;;;;14.27;10.68;;;5.10;99.90;;;;;;4753697;30;20038;-85
2021/11/28 11:43:10;;;;;;;14.63;10.77;;;5.10;99.90;;;;;;4771524;30;20528;-86
2021/11/28 11:45:37;;;;;;;17.50;10.90;;;5.20;99.90;;;;;;4764685;30;20077;-85
2021/11/28 11:48:07;;;;;;;;;;;5.30;99.90;;;;;;4769435;30;20054;-86
2021/11/28 11:50:35;;;;;;;17.05;11.23;;;5.30;99.90;;;;;;4783860;30;20163;-86
2021/11/28 11:53:05;;;;;;;;;;;5.40;99.90;;;;;;4776354;30;20120;-87
2021/11/28 11:55:37;;;;;;;20.92;12.25;;;5.50;99.90;;;;;;4777059;30;19913;-85
2021/11/28 11:58:37;;;;;;;17.83;12.43;;;5.70;99.90;;;;;;4777058;30;20047;-86
2021/11/28 12:01:08;;;;;;;15.35;11.52;;;5.80;99.90;;;;;;4775586;30;20039;-85
2021/11/28 12:03:50;;;;;;;17.95;12.05;;;5.90;99.90;;;;;;4776212;30;20044;-85
2021/11/28 12:06:17;;;;;;;17.98;11.52;;;6.00;99.70;;;;;;4777324;30;20040;-85
2021/11/28 12:08:53;;;;;;;16.87;11.73;;;6.20;99.70;;;;;;4747777;30;20332;-86
2021/11/28 12:11:22;;;;;;;13.10;10.27;;;6.30;99.40;;;;;;4776547;30;20118;-85
2021/11/28 12:13:52;;;;;;;16.08;11.07;;;6.40;98.90;;;;;;4760319;30;20336;-83
2021/11/28 12:16:20;;;;;;;20.08;12.80;;;6.40;98.80;;;;;;4762153;30;20027;-83
2021/11/28 12:18:52;;;;;;;19.58;12.45;;;6.40;98.90;;;;;;4773432;30;20074;-84
2021/11/28 12:21:19;;;;;;;15.43;10.45;;;6.40;98.80;;;;;;4774209;30;20092;-85
2021/11/28 12:23:55;;;;;;;14.25;9.80;;;6.40;98.50;;;;;;4759480;30;20059;-83
2021/11/28 12:26:36;;;;;;;13.10;9.60;;;6.40;98.50;;;;;;4759878;30;20050;-84
2021/11/28 12:29:14;;;;;;;16.05;10.20;;;6.30;98.60;;;;;;4802989;29;20047;-83
2021/11/28 12:31:46;;;;;;;13.63;9.98;;;6.30;98.60;;;;;;4779476;30;20051;-84
2021/11/28 12:34:26;;;;;;;13.73;10.00;;;6.30;98.50;;;;;;4803742;29;20043;-83
2021/11/28 12:36:58;;;;;;;15.48;10.35;;;6.20;98.60;;;;;;4809056;29;20043;-83
2021/11/28 12:39:25;;;;;;;12.70;8.88;;;6.20;98.40;;;;;;4793626;29;20050;-84
2021/11/28 12:42:03;;;;;;;;;;;6.00;98.00;;;;;;4794114;30;20043;-83
2021/11/28 12:44:48;;;;;;;14.13;8.85;;;6.00;98.50;;;;;;4779035;30;19947;-84
2021/11/28 12:47:14;;;;;;;11.40;8.70;;;6.00;98.80;;;;;;4808289;29;20259;-84
2021/11/28 12:49:59;;;;;;;13.68;8.65;;;6.00;98.50;;;;;;4792983;29;20096;-83
2021/11/28 12:52:24;;;;;;;11.10;8.27;;;6.00;98.80;;;;;;4772072;30;20097;-84
2021/11/28 12:55:03;;;;;;;11.15;8.25;;;6.10;98.80;;;;;;4778406;29;20309;-85
2021/11/28 12:57:38;;;;;;;11.05;7.78;;;6.10;98.80;;;;;;4808516;29;20043;-84
2021/11/28 13:00:11;;;;;;;12.23;7.88;;;6.30;98.90;;;;;;4793485;30;20097;-84
2021/11/28 13:02:51;;;;;;;10.77;7.35;;;6.40;98.60;;;;;;4778802;29;20126;-84
2021/11/28 13:05:40;;;;;;;9.68;6.40;;;6.30;98.30;;;;;;4812118;29;20046;-85
2021/11/28 13:08:06;;;;;;;11.02;6.32;;;6.30;98.00;;;;;;4782076;30;20027;-85
2021/11/28 13:10:46;;;;;;;8.77;6.47;;;6.20;97.90;;;;;;4797196;29;20366;-85
2021/11/28 13:13:32;;;;;;;8.95;6.68;;;6.10;98.00;;;;;;4813442;29;20080;-85
2021/11/28 13:16:24;;;;;;;8.32;5.97;;;6.00;97.80;;;;;;4783734;29;20046;-84
2021/11/28 13:18:53;;;;;;;8.90;5.90;;;5.90;98.10;;;;;;4783536;30;20035;-84
2021/11/28 13:21:48;;;;;;;9.48;6.28;;;5.90;98.30;;;;;;4799005;30;20043;-84
2021/11/28 13:24:34;;;;;;;10.90;7.97;;;5.90;98.50;;;;;;4777760;30;20054;-86
2021/11/28 13:27:24;;;;;;;9.23;7.13;;;5.90;98.10;;;;;;4776230;30;20064;-86
2021/11/28 13:30:02;;;;;;;9.65;7.43;;;5.80;98.40;;;;;;4783252;30;20031;-85
2021/11/28 13:32:28;;;;;;;11.93;8.35;;;5.70;98.40;;;;;;4779816;30;20039;-85
2021/11/28 13:34:53;;;;;;;12.27;8.52;;;5.70;98.60;;;;;;4764665;30;20039;-85
2021/11/28 13:37:20;;;;;;;12.73;8.77;;;5.60;98.90;;;;;;4764973;30;20093;-86
2021/11/28 13:39:46;;;;;;;12.33;8.90;;;5.60;99.20;;;;;;4764698;30;20048;-85
2021/11/28 13:42:11;;;;;;;11.02;7.38;;;5.80;99.20;;;;;;4773192;30;20406;-85
2021/11/28 13:44:37;;;;;;;10.73;8.05;;;5.70;98.70;;;;;;4776551;30;20044;-85
2021/11/28 13:47:04;;;;;;;12.15;8.18;;;5.70;98.80;;;;;;4776591;30;20441;-85
2021/11/28 13:49:36;;;;;;;12.10;9.13;;;5.60;98.80;;;;;;4771163;30;20235;-85
2021/11/28 13:52:06;;;;;;;13.60;9.90;;;5.70;99.10;;;;;;4754627;30;20351;-85
2021/11/28 13:54:36;;;;;;;14.35;9.43;;;5.70;99.00;;;;;;4766760;30;20040;-85
2021/11/28 13:57:10;;;;;;;16.15;10.60;;;5.70;98.80;;;;;;4763723;30;20039;-85
2021/11/28 13:59:42;;;;;;;12.00;9.30;;;5.60;98.70;;;;;;4775515;30;20035;-85
2021/11/28 14:02:13;;;;;;;14.13;10.30;;;5.60;99.10;;;;;;4792884;29;20050;-85
2021/11/28 14:04:40;;;;;;;15.60;10.45;;;5.70;99.30;;;;;;4811065;29;20035;-85
2021/11/28 14:07:43;;;;;;;17.02;11.43;;;5.70;99.10;;;;;;4797401;30;20134;-85
2021/11/28 14:10:20;;;;;;;15.18;10.05;;;5.80;99.20;;;;;;4796472;30;20257;-85
2021/11/28 14:12:52;;;;;;;16.20;10.90;;;5.70;99.10;;;;;;4797875;30;20370;-85
2021/11/28 14:15:25;;;;;;;17.48;10.80;;;5.70;99.20;;;;;;4782349;30;20331;-85
2021/11/28 14:18:04;;;;;;;17.73;11.77;;;5.70;99.00;;;;;;4797816;30;20039;-85
2021/11/28 14:20:34;;;;;;;17.80;10.48;;;5.70;99.20;;;;;;4798506;29;20051;-85
2021/11/28 14:23:01;;;;;;;17.45;11.65;;;5.80;99.20;;;;;;4782490;30;20111;-85
2021/11/28 14:25:37;;;;;;;;;;;5.70;99.10;;;;;;4812875;29;20063;-85
2021/11/28 14:28:15;;;;;;;17.35;10.95;;;5.70;98.90;;;;;;4797934;29;19989;-85
2021/11/28 14:30:54;;;;;;;14.45;10.15;;;5.60;99.20;;;;;;4812484;29;20047;-85
2021/11/28 14:33:22;;;;;;;18.45;9.80;;;5.60;99.00;;;;;;4812299;29;20030;-85
2021/11/28 14:36:14;;;;;;;18.95;12.52;;;5.50;99.20;;;;;;4782789;30;20027;-85
2021/11/28 14:38:48;;;;;;;20.25;12.00;;;5.50;99.50;;;;;;4782366;30;20106;-85
2021/11/28 14:41:16;;;;;;;17.33;11.55;;;5.50;99.30;;;;;;4795870;30;20058;-84
2021/11/28 14:43:48;;;;;;;20.17;12.05;;;5.50;99.30;;;;;;4780252;29;20027;-82
2021/11/28 14:46:35;;;;;;;21.10;10.77;;;5.40;99.10;;;;;;4794608;29;20122;-82
2021/11/28 14:49:13;;;;;;;15.63;9.70;;;5.30;99.20;;;;;;4809053;29;20088;-82
2021/11/28 14:51:45;;;;;;;17.63;10.77;;;5.30;99.50;;;;;;4782961;30;20027;-82
2021/11/28 14:54:15;;;;;;;20.58;11.27;;;5.30;99.60;;;;;;4795654;29;20329;-82
2021/11/28 14:56:43;;;;;;;18.52;10.80;;;5.20;99.60;;;;;;4810249;29;20039;-82
2021/11/28 14:59:27;;;;;;;15.77;9.90;;;5.20;99.80;;;;;;4778832;29;20122;-86
2021/11/28 15:02:10;;;;;;;16.33;10.20;;;5.10;99.70;;;;;;4782167;30;20047;-86
2021/11/28 15:04:38;;;;;;;20.58;8.43;;;5.00;99.80;;;;;;4796115;29;20035;-86
2021/11/28 15:07:09;;;;;;;17.20;9.40;;;5.00;99.90;;;;;;4808928;29;20031;-86
2021/11/28 15:09:38;;;;;;;14.80;9.15;;;4.90;99.90;;;;;;4811850;29;20039;-86
2021/11/28 15:12:20;;;;;;;13.27;8.30;;;4.90;99.90;;;;;;4795736;29;20031;-86
2021/11/28 15:14:46;;;;;;;15.02;9.75;;;5.00;99.90;;;;;;4802365;29;20022;-85
2021/11/28 15:17:12;;;;;;;15.70;8.77;;;5.00;99.90;;;;;;4798538;29;20039;-85
2021/11/28 15:19:38;;;;;;;15.23;8.65;;;5.00;99.90;;;;;;4782922;30;20031;-85
2021/11/28 15:22:04;;;;;;;12.07;8.00;;;5.00;99.90;;;;;;4811981;29;20031;-85
2021/11/28 15:24:30;;;;;;;13.57;8.07;;;5.00;99.90;;;;;;4796195;30;20059;-87
2021/11/28 15:26:56;;;;;;;15.20;8.88;;;5.00;99.90;;;;;;4810799;29;20070;-85
2021/11/28 15:29:24;;;;;;;14.47;8.83;;;5.00;99.90;;;;;;4776320;30;20023;-85
2021/11/28 15:31:50;;;;;;;16.25;9.40;;;5.00;99.90;;;;;;4783673;30;20596;-85
2021/11/28 15:34:17;;;;;;;14.20;8.00;;;5.10;99.90;;;;;;4781538;29;20390;-85
2021/11/28 15:36:50;;;;;;;11.77;8.02;;;5.10;99.90;;;;;;4812679;29;20360;-85
2021/11/28 15:39:21;;;;;;;13.27;7.95;;;5.10;99.90;;;;;;4811919;29;20319;-85
2021/11/28 15:41:48;;;;;;;10.57;7.05;;;5.10;99.90;;;;;;4808999;29;20055;-86
2021/11/28 15:44:13;;;;;;;10.07;6.68;;;5.10;99.90;;;;;;4810970;29;20047;-85
2021/11/28 15:46:43;;;;;;;10.18;7.10;;;5.10;99.90;;;;;;4811056;29;20171;-87
2021/11/28 15:49:16;;;;;;;8.70;6.70;;;5.10;99.90;;;;;;4810097;29;20031;-88
2021/11/28 15:51:49;;;;;;;9.95;7.18;;;5.20;99.90;;;;;;4780195;30;20043;-88
2021/11/28 15:54:16;;;;;;;9.70;6.55;;;5.20;99.90;;;;;;4763979;29;20355;-87
2021/11/28 15:56:43;;;;;;;;;;;5.20;99.90;;;;;;4780581;30;20051;-86
2021/11/28 15:59:09;;;;;;;9.70;6.60;;;5.20;99.90;;;;;;4795001;29;19981;-86
2021/11/28 16:01:35;;;;;;;10.38;6.80;;;5.20;99.90;;;;;;4780352;30;20051;-85
2021/11/28 16:04:02;;;;;;;13.20;7.63;;;5.20;99.90;;;;;;4795119;29;20046;-86
2021/11/28 16:06:28;;;;;;;11.33;7.13;;;5.10;99.90;;;;;;4794461;29;20039;-86
2021/11/28 16:08:54;;;;;;;10.50;6.78;;;5.10;99.90;;;;;;4779710;29;20046;-85
2021/11/28 16:11:22;;;;;;;9.10;6.27;;;5.10;99.90;;;;;;4797754;29;20051;-86
2021/11/28 16:13:54;;;;;;;12.60;7.78;;;5.10;99.90;;;;;;4797362;29;20288;-86
2021/11/28 16:16:22;;;;;;;10.68;7.18;;;5.00;99.90;;;;;;4772415;29;20235;-85
2021/11/28 16:18:51;;;;;;;12.38;7.55;;;5.00;99.90;;;;;;4767809;29;20084;-85
2021/11/28 16:21:16;;;;;;;13.98;7.15;;;5.00;99.90;;;;;;4767404;29;20062;-85
2021/11/28 16:23:42;;;;;;;11.48;8.25;;;4.90;99.90;;;;;;4782074;29;20266;-86
2021/11/28 16:26:08;;;;;;;12.80;8.68;;;5.00;99.90;;;;;;4796732;29;20405;-85
2021/11/28 16:28:34;;;;;;;12.18;7.78;;;5.00;99.90;;;;;;4785514;29;20324;-85
2021/11/28 16:31:00;;;;;;;14.23;8.63;;;5.00;99.90;;;;;;4767649;29;20051;-84
2021/11/28 16:33:27;;;;;;;12.15;8.27;;;4.90;99.90;;;;;;4782028;29;20043;-85
2021/11/28 16:35:53;;;;;;;12.65;8.35;;;4.90;99.90;;;;;;4772387;29;20039;-86
2021/11/28 16:38:19;;;;;;;12.48;8.00;;;4.90;99.90;;;;;;4781888;30;20039;-86
2021/11/28 16:40:44;;;;;;;13.27;8.02;;;4.90;99.90;;;;;;4780707;29;20362;-86
2021/11/28 16:43:14;;;;;;;12.32;7.70;;;4.90;99.90;;;;;;4795188;29;20340;-86
2021/11/28 16:45:45;;;;;;;12.90;7.88;;;5.00;99.90;;;;;;4808810;29;20290;-86
2021/11/28 16:48:12;;;;;;;13.50;9.60;;;5.00;99.90;;;;;;4808937;29;20114;-86
2021/11/28 16:50:39;;;;;;;11.77;7.70;;;5.00;99.90;;;;;;4796873;29;20274;-85
2021/11/28 16:53:08;;;;;;;10.63;6.78;;;5.00;99.90;;;;;;4783983;29;20255;-86
2021/11/28 16:55:37;;;;;;;9.15;6.75;;;5.00;99.90;;;;;;4810990;29;20244;-85
2021/11/28 16:58:05;;;;;;;10.88;6.32;;;5.00;99.90;;;;;;4810247;29;20039;-84
2021/11/28 17:00:30;;;;;;;9.40;6.30;;;5.10;99.90;;;;;;4810343;29;20060;-84
2021/11/28 17:02:57;;;;;;;7.28;5.18;;;5.10;99.90;;;;;;4795392;29;20043;-85